sensor_id;sensor_type;location;lat;lon;timestamp;temperature;humidity
6018;DHT22;3037;51.068;13.780;2023-04-24T00:00:32;13.30;99.90
6018;DHT22;3037;51.068;13.780;2023-04-24T00:02:57;13.20;99.90
6018;DHT22;3037;51.068;13.780;2023-04-24T00:05:24;13.20;99.90
6018;DHT22;3037;51.068;13.780;2023-04-24T00:07:49;13.30;99.90
6018;DHT22;3037;51.068;13.780;2023-04-24T00:10:18;13.30;99.90
6018;DHT22;3037;51.068;13.780;2023-04-24T00:12:44;13.30;99.90
6018;DHT22;3037;51.068;13.780;2023-04-24T00:15:09;13.30;99.90
6018;DHT22;3037;51.068;13.780;2023-04-24T00:17:35;13.20;99.90
6018;DHT22;3037;51.068;13.780;2023-04-24T00:20:01;13.10;99.90
6018;DHT22;3037;51.068;13.780;2023-04-24T00:22:29;13.10;99.90
6018;DHT22;3037;51.068;13.780;2023-04-24T00:24:55;13.10;99.90
6018;DHT22;3037;51.068;13.780;2023-04-24T00:27:21;13.00;99.90
6018;DHT22;3037;51.068;13.780;2023-04-24T00:29:46;13.00;99.90
6018;DHT22;3037;51.068;13.780;2023-04-24T00:32:12;13.00;99.90
6018;DHT22;3037;51.068;13.780;2023-04-24T00:34:38;12.90;99.90
6018;DHT22;3037;51.068;13.780;2023-04-24T00:37:03;12.80;99.90
6018;DHT22;3037;51.068;13.780;2023-04-24T00:39:29;12.80;99.90
6018;DHT22;3037;51.068;13.780;2023-04-24T00:41:55;12.70;99.90
6018;DHT22;3037;51.068;13.780;2023-04-24T00:44:22;12.70;99.90
6018;DHT22;3037;51.068;13.780;2023-04-24T00:46:47;12.70;99.90
6018;DHT22;3037;51.068;13.780;2023-04-24T00:49:18;12.70;99.90
6018;DHT22;3037;51.068;13.780;2023-04-24T00:51:43;12.70;99.90
6018;DHT22;3037;51.068;13.780;2023-04-24T00:54:11;12.70;99.90
6018;DHT22;3037;51.068;13.780;2023-04-24T00:56:36;12.80;99.90
6018;DHT22;3037;51.068;13.780;2023-04-24T00:59:02;12.80;99.90
6018;DHT22;3037;51.068;13.780;2023-04-24T01:01:28;12.80;99.90
6018;DHT22;3037;51.068;13.780;2023-04-24T01:03:53;12.80;99.90
6018;DHT22;3037;51.068;13.780;2023-04-24T01:06:20;12.80;99.90
6018;DHT22;3037;51.068;13.780;2023-04-24T01:08:47;12.80;99.90
6018;DHT22;3037;51.068;13.780;2023-04-24T01:11:13;12.90;99.90
6018;DHT22;3037;51.068;13.780;2023-04-24T01:13:39;12.80;99.90
6018;DHT22;3037;51.068;13.780;2023-04-24T01:16:05;12.80;99.90
6018;DHT22;3037;51.068;13.780;2023-04-24T01:18:31;12.90;99.90
6018;DHT22;3037;51.068;13.780;2023-04-24T01:20:58;13.10;99.90
6018;DHT22;3037;51.068;13.780;2023-04-24T01:23:25;13.00;99.90
6018;DHT22;3037;51.068;13.780;2023-04-24T01:25:50;12.80;99.90
6018;DHT22;3037;51.068;13.780;2023-04-24T01:28:17;12.80;99.90
6018;DHT22;3037;51.068;13.780;2023-04-24T01:30:42;12.80;99.90
6018;DHT22;3037;51.068;13.780;2023-04-24T01:33:08;12.70;99.90
6018;DHT22;3037;51.068;13.780;2023-04-24T01:35:34;12.70;99.90
6018;DHT22;3037;51.068;13.780;2023-04-24T01:38:01;12.80;99.90
6018;DHT22;3037;51.068;13.780;2023-04-24T01:40:27;12.70;99.90
6018;DHT22;3037;51.068;13.780;2023-04-24T01:42:52;12.70;99.90
6018;DHT22;3037;51.068;13.780;2023-04-24T01:45:18;12.70;99.90
6018;DHT22;3037;51.068;13.780;2023-04-24T01:47:44;12.70;99.90
6018;DHT22;3037;51.068;13.780;2023-04-24T01:50:10;12.70;99.90
6018;DHT22;3037;51.068;13.780;2023-04-24T01:52:35;12.70;99.90
6018;DHT22;3037;51.068;13.780;2023-04-24T01:55:04;12.70;99.90
6018;DHT22;3037;51.068;13.780;2023-04-24T01:57:31;12.70;99.90
6018;DHT22;3037;51.068;13.780;2023-04-24T01:59:57;12.70;99.90
6018;DHT22;3037;51.068;13.780;2023-04-24T02:02:23;12.70;99.90
6018;DHT22;3037;51.068;13.780;2023-04-24T02:04:53;12.80;99.90
6018;DHT22;3037;51.068;13.780;2023-04-24T02:07:19;12.70;99.90
6018;DHT22;3037;51.068;13.780;2023-04-24T02:09:45;12.70;99.90
6018;DHT22;3037;51.068;13.780;2023-04-24T02:12:10;12.70;99.90
6018;DHT22;3037;51.068;13.780;2023-04-24T02:14:36;12.70;99.90
6018;DHT22;3037;51.068;13.780;2023-04-24T02:17:01;12.60;99.90
6018;DHT22;3037;51.068;13.780;2023-04-24T02:19:27;12.60;99.90
6018;DHT22;3037;51.068;13.780;2023-04-24T02:21:52;12.70;99.90
6018;DHT22;3037;51.068;13.780;2023-04-24T02:24:18;12.70;99.90
6018;DHT22;3037;51.068;13.780;2023-04-24T02:26:43;12.70;99.90
6018;DHT22;3037;51.068;13.780;2023-04-24T02:29:09;12.70;99.90
6018;DHT22;3037;51.068;13.780;2023-04-24T02:31:34;12.70;99.90
6018;DHT22;3037;51.068;13.780;2023-04-24T02:34:00;12.80;99.90
6018;DHT22;3037;51.068;13.780;2023-04-24T02:36:25;12.70;99.90
6018;DHT22;3037;51.068;13.780;2023-04-24T02:38:51;12.70;99.90
6018;DHT22;3037;51.068;13.780;2023-04-24T02:41:16;12.60;99.90
6018;DHT22;3037;51.068;13.780;2023-04-24T02:43:42;12.80;99.90
6018;DHT22;3037;51.068;13.780;2023-04-24T02:46:07;12.80;99.90
6018;DHT22;3037;51.068;13.780;2023-04-24T02:48:33;12.70;99.90
6018;DHT22;3037;51.068;13.780;2023-04-24T02:50:58;12.70;99.90
6018;DHT22;3037;51.068;13.780;2023-04-24T02:53:25;12.70;99.90
6018;DHT22;3037;51.068;13.780;2023-04-24T02:55:50;12.70;99.90
6018;DHT22;3037;51.068;13.780;2023-04-24T02:58:16;12.60;99.90
6018;DHT22;3037;51.068;13.780;2023-04-24T03:00:42;12.60;99.90
6018;DHT22;3037;51.068;13.780;2023-04-24T03:03:08;12.60;99.90
6018;DHT22;3037;51.068;13.780;2023-04-24T03:05:34;12.60;99.90
6018;DHT22;3037;51.068;13.780;2023-04-24T03:08:00;12.60;99.90
6018;DHT22;3037;51.068;13.780;2023-04-24T03:10:25;12.50;99.90
6018;DHT22;3037;51.068;13.780;2023-04-24T03:12:51;12.40;99.90
6018;DHT22;3037;51.068;13.780;2023-04-24T03:15:16;12.40;99.90
6018;DHT22;3037;51.068;13.780;2023-04-24T03:17:42;12.40;99.90
6018;DHT22;3037;51.068;13.780;2023-04-24T03:20:08;12.40;99.90
6018;DHT22;3037;51.068;13.780;2023-04-24T03:22:34;12.50;99.90
6018;DHT22;3037;51.068;13.780;2023-04-24T03:25:00;12.40;99.90
6018;DHT22;3037;51.068;13.780;2023-04-24T03:27:25;12.40;99.90
6018;DHT22;3037;51.068;13.780;2023-04-24T03:29:51;12.40;99.90
6018;DHT22;3037;51.068;13.780;2023-04-24T03:32:20;12.40;99.90
6018;DHT22;3037;51.068;13.780;2023-04-24T03:34:46;12.30;99.90
6018;DHT22;3037;51.068;13.780;2023-04-24T03:37:12;12.40;99.90
6018;DHT22;3037;51.068;13.780;2023-04-24T03:39:37;12.30;99.90
6018;DHT22;3037;51.068;13.780;2023-04-24T03:42:03;12.40;99.90
6018;DHT22;3037;51.068;13.780;2023-04-24T03:44:28;12.30;99.90
6018;DHT22;3037;51.068;13.780;2023-04-24T03:46:54;12.40;99.90
6018;DHT22;3037;51.068;13.780;2023-04-24T03:49:19;12.30;99.90
6018;DHT22;3037;51.068;13.780;2023-04-24T03:51:45;12.30;99.90
6018;DHT22;3037;51.068;13.780;2023-04-24T03:54:11;12.20;99.90
6018;DHT22;3037;51.068;13.780;2023-04-24T03:56:36;12.20;99.90
6018;DHT22;3037;51.068;13.780;2023-04-24T03:59:02;12.30;99.90
6018;DHT22;3037;51.068;13.780;2023-04-24T04:01:27;12.30;99.90
6018;DHT22;3037;51.068;13.780;2023-04-24T04:03:53;12.40;99.90
6018;DHT22;3037;51.068;13.780;2023-04-24T04:06:19;12.30;99.90
6018;DHT22;3037;51.068;13.780;2023-04-24T04:08:44;12.40;99.90
6018;DHT22;3037;51.068;13.780;2023-04-24T04:11:10;12.40;99.90
6018;DHT22;3037;51.068;13.780;2023-04-24T04:13:35;12.50;99.90
6018;DHT22;3037;51.068;13.780;2023-04-24T04:16:01;12.50;99.90
6018;DHT22;3037;51.068;13.780;2023-04-24T04:18:26;12.60;99.90
6018;DHT22;3037;51.068;13.780;2023-04-24T04:20:52;12.80;99.90
6018;DHT22;3037;51.068;13.780;2023-04-24T04:23:17;12.80;99.90
6018;DHT22;3037;51.068;13.780;2023-04-24T04:25:43;12.80;99.90
6018;DHT22;3037;51.068;13.780;2023-04-24T04:28:08;12.80;99.90
6018;DHT22;3037;51.068;13.780;2023-04-24T04:30:34;13.00;99.90
6018;DHT22;3037;51.068;13.780;2023-04-24T04:33:00;13.00;99.90
6018;DHT22;3037;51.068;13.780;2023-04-24T04:35:25;13.00;99.90
6018;DHT22;3037;51.068;13.780;2023-04-24T04:37:51;13.00;99.90
6018;DHT22;3037;51.068;13.780;2023-04-24T04:40:16;13.10;99.90
6018;DHT22;3037;51.068;13.780;2023-04-24T04:42:42;13.20;99.90
6018;DHT22;3037;51.068;13.780;2023-04-24T04:45:11;13.30;99.90
6018;DHT22;3037;51.068;13.780;2023-04-24T04:47:37;13.40;99.90
6018;DHT22;3037;51.068;13.780;2023-04-24T04:50:03;13.40;99.90
6018;DHT22;3037;51.068;13.780;2023-04-24T04:52:29;13.50;99.90
6018;DHT22;3037;51.068;13.780;2023-04-24T04:54:55;13.50;99.90
6018;DHT22;3037;51.068;13.780;2023-04-24T04:57:20;13.60;99.90
6018;DHT22;3037;51.068;13.780;2023-04-24T04:59:46;13.50;99.90
6018;DHT22;3037;51.068;13.780;2023-04-24T05:02:12;13.50;99.90
6018;DHT22;3037;51.068;13.780;2023-04-24T05:04:37;13.60;99.90
6018;DHT22;3037;51.068;13.780;2023-04-24T05:07:03;13.60;99.90
6018;DHT22;3037;51.068;13.780;2023-04-24T05:09:28;13.80;99.90
6018;DHT22;3037;51.068;13.780;2023-04-24T05:11:55;13.90;99.90
6018;DHT22;3037;51.068;13.780;2023-04-24T05:14:20;14.00;99.90
6018;DHT22;3037;51.068;13.780;2023-04-24T05:16:47;14.20;99.90
6018;DHT22;3037;51.068;13.780;2023-04-24T05:19:13;14.30;99.90
6018;DHT22;3037;51.068;13.780;2023-04-24T05:21:39;14.50;99.90
6018;DHT22;3037;51.068;13.780;2023-04-24T05:24:05;14.70;99.90
6018;DHT22;3037;51.068;13.780;2023-04-24T05:26:31;14.70;99.90
6018;DHT22;3037;51.068;13.780;2023-04-24T05:28:57;14.60;99.90
6018;DHT22;3037;51.068;13.780;2023-04-24T05:31:22;14.60;99.90
6018;DHT22;3037;51.068;13.780;2023-04-24T05:33:48;14.70;99.90
6018;DHT22;3037;51.068;13.780;2023-04-24T05:36:13;14.80;99.90
6018;DHT22;3037;51.068;13.780;2023-04-24T05:38:39;14.80;99.90
6018;DHT22;3037;51.068;13.780;2023-04-24T05:41:04;15.00;99.90
6018;DHT22;3037;51.068;13.780;2023-04-24T05:43:30;14.90;99.90
6018;DHT22;3037;51.068;13.780;2023-04-24T05:45:55;14.90;99.90
6018;DHT22;3037;51.068;13.780;2023-04-24T05:48:21;14.90;99.90
6018;DHT22;3037;51.068;13.780;2023-04-24T05:50:48;14.90;99.90
6018;DHT22;3037;51.068;13.780;2023-04-24T05:53:13;14.90;99.60
6018;DHT22;3037;51.068;13.780;2023-04-24T05:55:39;15.10;98.10
6018;DHT22;3037;51.068;13.780;2023-04-24T05:58:05;15.00;97.90
6018;DHT22;3037;51.068;13.780;2023-04-24T06:00:31;14.90;98.40
6018;DHT22;3037;51.068;13.780;2023-04-24T06:02:56;14.90;98.30
6018;DHT22;3037;51.068;13.780;2023-04-24T06:05:22;15.10;98.00
6018;DHT22;3037;51.068;13.780;2023-04-24T06:07:48;15.10;99.40
6018;DHT22;3037;51.068;13.780;2023-04-24T06:10:14;15.20;99.00
6018;DHT22;3037;51.068;13.780;2023-04-24T06:12:39;15.20;97.30
6018;DHT22;3037;51.068;13.780;2023-04-24T06:15:05;15.40;97.00
6018;DHT22;3037;51.068;13.780;2023-04-24T06:17:31;15.60;95.80
6018;DHT22;3037;51.068;13.780;2023-04-24T06:19:57;16.00;93.30
6018;DHT22;3037;51.068;13.780;2023-04-24T06:22:23;16.10;89.40
6018;DHT22;3037;51.068;13.780;2023-04-24T06:24:48;16.70;84.90
6018;DHT22;3037;51.068;13.780;2023-04-24T06:27:14;16.90;78.00
6018;DHT22;3037;51.068;13.780;2023-04-24T06:29:39;18.30;68.70
6018;DHT22;3037;51.068;13.780;2023-04-24T06:32:05;19.80;48.20
6018;DHT22;3037;51.068;13.780;2023-04-24T06:34:31;19.70;34.30
6018;DHT22;3037;51.068;13.780;2023-04-24T06:36:58;20.30;28.20
6018;DHT22;3037;51.068;13.780;2023-04-24T06:39:23;20.60;18.30
6018;DHT22;3037;51.068;13.780;2023-04-24T06:41:49;19.60;23.90
6018;DHT22;3037;51.068;13.780;2023-04-24T06:44:15;20.30;22.20
6018;DHT22;3037;51.068;13.780;2023-04-24T06:46:41;20.10;21.30
6018;DHT22;3037;51.068;13.780;2023-04-24T06:49:06;19.50;24.30
6018;DHT22;3037;51.068;13.780;2023-04-24T06:51:32;20.10;19.10
6018;DHT22;3037;51.068;13.780;2023-04-24T06:53:58;20.20;12.70
6018;DHT22;3037;51.068;13.780;2023-04-24T06:56:24;21.20;8.10
6018;DHT22;3037;51.068;13.780;2023-04-24T06:58:50;22.40;1.00
6018;DHT22;3037;51.068;13.780;2023-04-24T07:01:16;23.00;1.00
6018;DHT22;3037;51.068;13.780;2023-04-24T07:03:42;22.60;1.00
6018;DHT22;3037;51.068;13.780;2023-04-24T07:06:08;23.30;1.00
6018;DHT22;3037;51.068;13.780;2023-04-24T07:08:34;24.00;1.00
6018;DHT22;3037;51.068;13.780;2023-04-24T07:11:01;24.60;1.00
6018;DHT22;3037;51.068;13.780;2023-04-24T07:13:27;25.50;1.00
6018;DHT22;3037;51.068;13.780;2023-04-24T07:15:53;25.10;1.00
6018;DHT22;3037;51.068;13.780;2023-04-24T07:18:20;24.60;1.00
6018;DHT22;3037;51.068;13.780;2023-04-24T07:20:46;25.20;1.00
6018;DHT22;3037;51.068;13.780;2023-04-24T07:23:12;25.50;1.00
6018;DHT22;3037;51.068;13.780;2023-04-24T07:25:37;25.50;1.00
6018;DHT22;3037;51.068;13.780;2023-04-24T07:28:04;26.20;1.00
6018;DHT22;3037;51.068;13.780;2023-04-24T07:30:30;25.50;1.00
6018;DHT22;3037;51.068;13.780;2023-04-24T07:32:56;24.50;1.00
6018;DHT22;3037;51.068;13.780;2023-04-24T07:35:21;23.70;1.00
6018;DHT22;3037;51.068;13.780;2023-04-24T07:37:47;22.50;1.00
6018;DHT22;3037;51.068;13.780;2023-04-24T07:40:13;21.90;1.00
6018;DHT22;3037;51.068;13.780;2023-04-24T07:42:39;21.10;1.00
6018;DHT22;3037;51.068;13.780;2023-04-24T07:45:05;21.00;1.00
6018;DHT22;3037;51.068;13.780;2023-04-24T07:47:31;21.40;1.00
6018;DHT22;3037;51.068;13.780;2023-04-24T07:49:57;21.60;1.00
6018;DHT22;3037;51.068;13.780;2023-04-24T07:52:23;21.80;1.00
6018;DHT22;3037;51.068;13.780;2023-04-24T07:54:49;21.70;1.00
6018;DHT22;3037;51.068;13.780;2023-04-24T07:57:15;21.30;1.00
6018;DHT22;3037;51.068;13.780;2023-04-24T07:59:41;20.80;1.00
6018;DHT22;3037;51.068;13.780;2023-04-24T08:02:06;20.80;1.00
6018;DHT22;3037;51.068;13.780;2023-04-24T08:04:32;20.70;1.00
6018;DHT22;3037;51.068;13.780;2023-04-24T08:06:58;20.70;1.00
6018;DHT22;3037;51.068;13.780;2023-04-24T08:09:23;20.60;1.00
6018;DHT22;3037;51.068;13.780;2023-04-24T08:11:49;20.30;1.00
6018;DHT22;3037;51.068;13.780;2023-04-24T08:14:15;20.50;1.00
6018;DHT22;3037;51.068;13.780;2023-04-24T08:16:40;20.40;1.00
6018;DHT22;3037;51.068;13.780;2023-04-24T08:19:07;20.50;1.00
6018;DHT22;3037;51.068;13.780;2023-04-24T08:21:32;20.20;1.00
6018;DHT22;3037;51.068;13.780;2023-04-24T08:23:58;20.00;1.00
6018;DHT22;3037;51.068;13.780;2023-04-24T08:26:23;20.30;1.00
6018;DHT22;3037;51.068;13.780;2023-04-24T08:28:50;20.30;1.00
6018;DHT22;3037;51.068;13.780;2023-04-24T08:31:15;20.10;1.00
6018;DHT22;3037;51.068;13.780;2023-04-24T08:33:41;20.10;1.00
6018;DHT22;3037;51.068;13.780;2023-04-24T08:36:07;19.90;1.00
6018;DHT22;3037;51.068;13.780;2023-04-24T08:38:33;19.80;1.00
6018;DHT22;3037;51.068;13.780;2023-04-24T08:41:00;19.90;1.00
6018;DHT22;3037;51.068;13.780;2023-04-24T08:43:26;19.60;1.00
6018;DHT22;3037;51.068;13.780;2023-04-24T08:45:54;19.50;1.00
6018;DHT22;3037;51.068;13.780;2023-04-24T08:48:22;19.50;1.00
6018;DHT22;3037;51.068;13.780;2023-04-24T08:50:49;19.20;1.00
6018;DHT22;3037;51.068;13.780;2023-04-24T08:53:15;19.00;1.00
6018;DHT22;3037;51.068;13.780;2023-04-24T08:55:43;18.90;1.00
6018;DHT22;3037;51.068;13.780;2023-04-24T08:58:10;18.90;1.00
6018;DHT22;3037;51.068;13.780;2023-04-24T09:00:36;18.80;1.00
6018;DHT22;3037;51.068;13.780;2023-04-24T09:03:03;19.00;1.00
6018;DHT22;3037;51.068;13.780;2023-04-24T09:05:30;19.30;1.00
6018;DHT22;3037;51.068;13.780;2023-04-24T09:07:56;19.70;1.00
6018;DHT22;3037;51.068;13.780;2023-04-24T09:10:23;19.80;1.00
6018;DHT22;3037;51.068;13.780;2023-04-24T09:12:50;20.00;1.00
6018;DHT22;3037;51.068;13.780;2023-04-24T09:15:17;20.30;1.00
6018;DHT22;3037;51.068;13.780;2023-04-24T09:17:43;20.50;1.00
6018;DHT22;3037;51.068;13.780;2023-04-24T09:20:09;20.60;1.00
6018;DHT22;3037;51.068;13.780;2023-04-24T09:22:35;20.40;1.00
6018;DHT22;3037;51.068;13.780;2023-04-24T09:25:06;20.70;1.00
6018;DHT22;3037;51.068;13.780;2023-04-24T09:27:33;21.00;1.00
6018;DHT22;3037;51.068;13.780;2023-04-24T09:29:59;21.40;1.00
6018;DHT22;3037;51.068;13.780;2023-04-24T09:32:25;21.50;1.00
6018;DHT22;3037;51.068;13.780;2023-04-24T09:35:12;21.00;1.00
6018;DHT22;3037;51.068;13.780;2023-04-24T09:37:40;21.10;1.00
6018;DHT22;3037;51.068;13.780;2023-04-24T09:40:15;21.00;1.00
6018;DHT22;3037;51.068;13.780;2023-04-24T09:42:53;21.30;1.00
6018;DHT22;3037;51.068;13.780;2023-04-24T09:45:20;21.60;1.00
6018;DHT22;3037;51.068;13.780;2023-04-24T09:47:45;21.60;1.00
6018;DHT22;3037;51.068;13.780;2023-04-24T09:50:15;20.80;1.00
6018;DHT22;3037;51.068;13.780;2023-04-24T09:52:46;20.20;1.00
6018;DHT22;3037;51.068;13.780;2023-04-24T09:55:18;20.10;1.00
6018;DHT22;3037;51.068;13.780;2023-04-24T09:57:56;19.60;1.00
6018;DHT22;3037;51.068;13.780;2023-04-24T10:00:26;20.20;1.00
6018;DHT22;3037;51.068;13.780;2023-04-24T10:03:00;20.00;1.00
6018;DHT22;3037;51.068;13.780;2023-04-24T10:05:31;19.90;1.00
6018;DHT22;3037;51.068;13.780;2023-04-24T10:08:07;19.80;1.00
6018;DHT22;3037;51.068;13.780;2023-04-24T10:10:34;19.80;1.00
6018;DHT22;3037;51.068;13.780;2023-04-24T10:13:00;19.80;1.00
6018;DHT22;3037;51.068;13.780;2023-04-24T10:15:27;19.90;1.00
6018;DHT22;3037;51.068;13.780;2023-04-24T10:17:53;19.70;1.00
6018;DHT22;3037;51.068;13.780;2023-04-24T10:20:29;19.90;1.00
6018;DHT22;3037;51.068;13.780;2023-04-24T10:22:56;19.70;1.00
6018;DHT22;3037;51.068;13.780;2023-04-24T10:25:27;19.70;1.00
6018;DHT22;3037;51.068;13.780;2023-04-24T10:27:54;19.50;1.00
6018;DHT22;3037;51.068;13.780;2023-04-24T10:30:23;19.70;1.00
6018;DHT22;3037;51.068;13.780;2023-04-24T10:32:48;19.90;1.00
6018;DHT22;3037;51.068;13.780;2023-04-24T10:35:15;20.40;1.00
6018;DHT22;3037;51.068;13.780;2023-04-24T10:37:44;20.70;1.00
6018;DHT22;3037;51.068;13.780;2023-04-24T10:40:10;20.80;1.00
6018;DHT22;3037;51.068;13.780;2023-04-24T10:42:40;21.60;1.00
6018;DHT22;3037;51.068;13.780;2023-04-24T10:45:07;21.60;1.00
6018;DHT22;3037;51.068;13.780;2023-04-24T10:47:41;22.00;1.00
6018;DHT22;3037;51.068;13.780;2023-04-24T10:50:10;22.30;1.00
6018;DHT22;3037;51.068;13.780;2023-04-24T10:52:49;21.70;1.00
6018;DHT22;3037;51.068;13.780;2023-04-24T10:55:42;21.10;1.00
6018;DHT22;3037;51.068;13.780;2023-04-24T10:58:08;20.70;1.00
6018;DHT22;3037;51.068;13.780;2023-04-24T11:00:37;20.10;1.00
6018;DHT22;3037;51.068;13.780;2023-04-24T11:03:27;19.60;1.00
6018;DHT22;3037;51.068;13.780;2023-04-24T11:06:07;19.50;1.00
6018;DHT22;3037;51.068;13.780;2023-04-24T11:11:14;19.30;1.00
6018;DHT22;3037;51.068;13.780;2023-04-24T11:16:25;18.90;1.00
6018;DHT22;3037;51.068;13.780;2023-04-24T11:24:48;18.40;1.00
6018;DHT22;3037;51.068;13.780;2023-04-24T11:27:16;18.20;1.00
6018;DHT22;3037;51.068;13.780;2023-04-24T11:32:26;18.30;1.00
6018;DHT22;3037;51.068;13.780;2023-04-24T11:35:03;18.30;1.00
6018;DHT22;3037;51.068;13.780;2023-04-24T11:37:37;18.50;1.00
6018;DHT22;3037;51.068;13.780;2023-04-24T11:40:04;18.50;1.00
6018;DHT22;3037;51.068;13.780;2023-04-24T11:42:37;18.40;1.00
6018;DHT22;3037;51.068;13.780;2023-04-24T11:45:08;18.40;1.00
6018;DHT22;3037;51.068;13.780;2023-04-24T11:47:34;18.50;1.00
6018;DHT22;3037;51.068;13.780;2023-04-24T11:50:01;19.30;1.00
6018;DHT22;3037;51.068;13.780;2023-04-24T11:52:27;20.40;1.00
6018;DHT22;3037;51.068;13.780;2023-04-24T11:54:53;20.90;1.00
6018;DHT22;3037;51.068;13.780;2023-04-24T11:57:24;20.80;1.00
6018;DHT22;3037;51.068;13.780;2023-04-24T11:59:51;20.80;1.00
6018;DHT22;3037;51.068;13.780;2023-04-24T12:02:21;20.90;1.00
6018;DHT22;3037;51.068;13.780;2023-04-24T12:04:47;20.90;1.00
6018;DHT22;3037;51.068;13.780;2023-04-24T12:07:12;20.90;1.00
6018;DHT22;3037;51.068;13.780;2023-04-24T12:09:42;20.80;1.00
6018;DHT22;3037;51.068;13.780;2023-04-24T12:12:08;20.70;1.00
6018;DHT22;3037;51.068;13.780;2023-04-24T12:14:48;20.20;1.00
6018;DHT22;3037;51.068;13.780;2023-04-24T12:17:15;19.60;1.00
6018;DHT22;3037;51.068;13.780;2023-04-24T12:19:48;18.80;1.00
6018;DHT22;3037;51.068;13.780;2023-04-24T12:22:14;18.80;1.00
6018;DHT22;3037;51.068;13.780;2023-04-24T12:25:02;18.60;1.00
6018;DHT22;3037;51.068;13.780;2023-04-24T12:27:31;18.60;1.00
6018;DHT22;3037;51.068;13.780;2023-04-24T12:29:58;18.40;1.00
6018;DHT22;3037;51.068;13.780;2023-04-24T12:32:24;18.20;1.00
6018;DHT22;3037;51.068;13.780;2023-04-24T12:34:53;18.10;1.00
6018;DHT22;3037;51.068;13.780;2023-04-24T12:37:20;18.20;1.00
6018;DHT22;3037;51.068;13.780;2023-04-24T12:40:03;18.20;1.00
6018;DHT22;3037;51.068;13.780;2023-04-24T12:42:31;18.70;1.00
6018;DHT22;3037;51.068;13.780;2023-04-24T12:45:04;19.50;1.00
6018;DHT22;3037;51.068;13.780;2023-04-24T12:47:31;20.00;1.00
6018;DHT22;3037;51.068;13.780;2023-04-24T12:49:57;20.00;1.00
6018;DHT22;3037;51.068;13.780;2023-04-24T12:52:23;20.20;1.00
6018;DHT22;3037;51.068;13.780;2023-04-24T12:54:50;20.10;1.00
6018;DHT22;3037;51.068;13.780;2023-04-24T12:57:17;18.90;1.00
6018;DHT22;3037;51.068;13.780;2023-04-24T12:59:43;18.60;1.00
6018;DHT22;3037;51.068;13.780;2023-04-24T13:02:09;18.80;1.00
6018;DHT22;3037;51.068;13.780;2023-04-24T13:04:35;18.80;1.00
6018;DHT22;3037;51.068;13.780;2023-04-24T13:07:01;19.00;1.00
6018;DHT22;3037;51.068;13.780;2023-04-24T13:09:26;19.20;1.00
6018;DHT22;3037;51.068;13.780;2023-04-24T13:11:52;19.20;1.00
6018;DHT22;3037;51.068;13.780;2023-04-24T13:14:17;19.50;1.00
6018;DHT22;3037;51.068;13.780;2023-04-24T13:16:43;19.30;1.00
6018;DHT22;3037;51.068;13.780;2023-04-24T13:19:08;19.20;1.00
6018;DHT22;3037;51.068;13.780;2023-04-24T13:21:34;19.40;1.00
6018;DHT22;3037;51.068;13.780;2023-04-24T13:23:59;19.40;1.00
6018;DHT22;3037;51.068;13.780;2023-04-24T13:26:25;19.60;1.00
6018;DHT22;3037;51.068;13.780;2023-04-24T13:28:50;19.90;1.00
6018;DHT22;3037;51.068;13.780;2023-04-24T13:31:16;20.30;1.00
6018;DHT22;3037;51.068;13.780;2023-04-24T13:33:42;20.60;1.00
6018;DHT22;3037;51.068;13.780;2023-04-24T13:36:08;20.50;1.00
6018;DHT22;3037;51.068;13.780;2023-04-24T13:38:33;20.10;1.00
6018;DHT22;3037;51.068;13.780;2023-04-24T13:40:59;20.60;1.00
6018;DHT22;3037;51.068;13.780;2023-04-24T13:43:24;21.10;1.00
6018;DHT22;3037;51.068;13.780;2023-04-24T13:45:50;20.70;1.00
6018;DHT22;3037;51.068;13.780;2023-04-24T13:48:15;19.90;1.00
6018;DHT22;3037;51.068;13.780;2023-04-24T13:50:42;19.90;1.00
6018;DHT22;3037;51.068;13.780;2023-04-24T13:53:08;19.70;1.00
6018;DHT22;3037;51.068;13.780;2023-04-24T13:55:33;19.70;1.00
6018;DHT22;3037;51.068;13.780;2023-04-24T13:57:59;19.40;1.00
6018;DHT22;3037;51.068;13.780;2023-04-24T14:00:25;19.40;1.00
6018;DHT22;3037;51.068;13.780;2023-04-24T14:02:51;18.90;1.00
6018;DHT22;3037;51.068;13.780;2023-04-24T14:05:16;18.90;1.00
6018;DHT22;3037;51.068;13.780;2023-04-24T14:07:42;18.80;1.00
6018;DHT22;3037;51.068;13.780;2023-04-24T14:10:08;19.00;1.00
6018;DHT22;3037;51.068;13.780;2023-04-24T14:12:33;19.30;1.00
6018;DHT22;3037;51.068;13.780;2023-04-24T14:14:59;19.30;1.00
6018;DHT22;3037;51.068;13.780;2023-04-24T14:17:25;19.50;1.00
6018;DHT22;3037;51.068;13.780;2023-04-24T14:19:50;19.80;1.00
6018;DHT22;3037;51.068;13.780;2023-04-24T14:22:17;19.80;1.00
6018;DHT22;3037;51.068;13.780;2023-04-24T14:24:43;20.20;1.00
6018;DHT22;3037;51.068;13.780;2023-04-24T14:27:08;20.60;1.00
6018;DHT22;3037;51.068;13.780;2023-04-24T14:29:34;21.30;1.00
6018;DHT22;3037;51.068;13.780;2023-04-24T14:31:59;21.20;1.00
6018;DHT22;3037;51.068;13.780;2023-04-24T14:34:25;20.70;1.00
6018;DHT22;3037;51.068;13.780;2023-04-24T14:36:52;20.90;1.00
6018;DHT22;3037;51.068;13.780;2023-04-24T14:39:18;20.90;1.00
6018;DHT22;3037;51.068;13.780;2023-04-24T14:41:43;20.90;1.00
6018;DHT22;3037;51.068;13.780;2023-04-24T14:44:09;20.70;1.00
6018;DHT22;3037;51.068;13.780;2023-04-24T14:46:34;20.40;1.00
6018;DHT22;3037;51.068;13.780;2023-04-24T14:49:00;20.20;1.00
6018;DHT22;3037;51.068;13.780;2023-04-24T14:51:25;19.90;1.00
6018;DHT22;3037;51.068;13.780;2023-04-24T14:53:52;19.90;1.00
6018;DHT22;3037;51.068;13.780;2023-04-24T14:56:17;20.00;1.00
6018;DHT22;3037;51.068;13.780;2023-04-24T14:58:43;19.90;1.00
6018;DHT22;3037;51.068;13.780;2023-04-24T15:01:08;19.20;1.00
6018;DHT22;3037;51.068;13.780;2023-04-24T15:03:34;18.60;1.00
6018;DHT22;3037;51.068;13.780;2023-04-24T15:05:59;18.30;1.00
6018;DHT22;3037;51.068;13.780;2023-04-24T15:08:26;18.20;1.00
6018;DHT22;3037;51.068;13.780;2023-04-24T15:10:51;18.20;1.00
6018;DHT22;3037;51.068;13.780;2023-04-24T15:13:17;18.40;1.00
6018;DHT22;3037;51.068;13.780;2023-04-24T15:15:43;18.70;1.00
6018;DHT22;3037;51.068;13.780;2023-04-24T15:18:09;18.60;1.00
6018;DHT22;3037;51.068;13.780;2023-04-24T15:20:36;18.50;1.00
6018;DHT22;3037;51.068;13.780;2023-04-24T15:23:05;18.10;1.00
6018;DHT22;3037;51.068;13.780;2023-04-24T15:25:30;18.10;1.00
6018;DHT22;3037;51.068;13.780;2023-04-24T15:27:56;17.90;1.00
6018;DHT22;3037;51.068;13.780;2023-04-24T15:30:21;17.90;1.00
6018;DHT22;3037;51.068;13.780;2023-04-24T15:32:47;17.70;1.00
6018;DHT22;3037;51.068;13.780;2023-04-24T15:35:12;17.40;1.00
6018;DHT22;3037;51.068;13.780;2023-04-24T15:37:38;17.20;1.00
6018;DHT22;3037;51.068;13.780;2023-04-24T15:40:04;17.20;1.00
6018;DHT22;3037;51.068;13.780;2023-04-24T15:42:32;17.20;1.00
6018;DHT22;3037;51.068;13.780;2023-04-24T15:44:58;16.90;1.00
6018;DHT22;3037;51.068;13.780;2023-04-24T15:47:24;16.70;1.00
6018;DHT22;3037;51.068;13.780;2023-04-24T15:49:49;16.60;1.00
6018;DHT22;3037;51.068;13.780;2023-04-24T15:52:16;16.70;1.00
6018;DHT22;3037;51.068;13.780;2023-04-24T15:54:42;16.50;1.00
6018;DHT22;3037;51.068;13.780;2023-04-24T15:57:07;16.50;1.00
6018;DHT22;3037;51.068;13.780;2023-04-24T15:59:33;16.40;1.00
6018;DHT22;3037;51.068;13.780;2023-04-24T16:01:58;16.40;1.00
6018;DHT22;3037;51.068;13.780;2023-04-24T16:04:24;16.30;1.00